sensor_id;sensor_type;location;lat;lon;timestamp;pressure;altitude;pressure_sealevel;temperature;humidity
5879;BME280;2965;42.640;23.370;2024-01-11T00:02:21;95455.78;;;-4.78;100.00
5879;BME280;2965;42.640;23.370;2024-01-11T00:04:47;95451.44;;;-4.76;100.00
5879;BME280;2965;42.640;23.370;2024-01-11T00:07:13;95457.47;;;-4.77;100.00
5879;BME280;2965;42.640;23.370;2024-01-11T00:09:42;95450.97;;;-4.85;100.00
5879;BME280;2965;42.640;23.370;2024-01-11T00:12:08;95437.69;;;-4.93;100.00
5879;BME280;2965;42.640;23.370;2024-01-11T00:14:34;95436.75;;;-4.90;100.00
5879;BME280;2965;42.640;23.370;2024-01-11T00:17:00;95430.81;;;-4.91;100.00
5879;BME280;2965;42.640;23.370;2024-01-11T00:19:26;95430.81;;;-4.91;100.00
5879;BME280;2965;42.640;23.370;2024-01-11T00:21:51;95433.41;;;-4.92;100.00
5879;BME280;2965;42.640;23.370;2024-01-11T00:24:17;95427.38;;;-4.90;100.00
5879;BME280;2965;42.640;23.370;2024-01-11T00:26:42;95429.91;;;-4.90;100.00
5879;BME280;2965;42.640;23.370;2024-01-11T00:59:46;95397.66;;;-5.30;100.00
5879;BME280;2965;42.640;23.370;2024-01-11T01:02:11;95412.50;;;-5.19;100.00
5879;BME280;2965;42.640;23.370;2024-01-11T01:04:38;95405.41;;;-5.13;100.00
5879;BME280;2965;42.640;23.370;2024-01-11T01:07:04;95406.25;;;-5.12;100.00
5879;BME280;2965;42.640;23.370;2024-01-11T01:09:29;95406.78;;;-5.05;100.00
5879;BME280;2965;42.640;23.370;2024-01-11T01:11:55;95402.66;;;-5.08;100.00
5879;BME280;2965;42.640;23.370;2024-01-11T01:14:21;95408.00;;;-5.14;100.00
5879;BME280;2965;42.640;23.370;2024-01-11T01:16:46;95407.16;;;-5.13;100.00
5879;BME280;2965;42.640;23.370;2024-01-11T01:19:12;95405.25;;;-5.10;100.00
5879;BME280;2965;42.640;23.370;2024-01-11T01:21:37;95405.97;;;-5.06;100.00
5879;BME280;2965;42.640;23.370;2024-01-11T01:24:03;95403.41;;;-5.06;100.00
5879;BME280;2965;42.640;23.370;2024-01-11T01:26:28;95406.50;;;-5.18;100.00
5879;BME280;2965;42.640;23.370;2024-01-11T01:28:54;95403.19;;;-5.20;100.00
5879;BME280;2965;42.640;23.370;2024-01-11T01:31:21;95409.13;;;-5.20;100.00
5879;BME280;2965;42.640;23.370;2024-01-11T01:33:46;95409.19;;;-5.21;100.00
5879;BME280;2965;42.640;23.370;2024-01-11T01:36:11;95410.03;;;-5.21;100.00
5879;BME280;2965;42.640;23.370;2024-01-11T01:38:37;95402.63;;;-5.27;100.00
5879;BME280;2965;42.640;23.370;2024-01-11T01:41:02;95395.66;;;-5.23;100.00
5879;BME280;2965;42.640;23.370;2024-01-11T01:43:28;95383.31;;;-5.33;100.00
5879;BME280;2965;42.640;23.370;2024-01-11T01:45:53;95383.47;;;-5.36;100.00
5879;BME280;2965;42.640;23.370;2024-01-11T01:48:19;95384.28;;;-5.35;100.00
5879;BME280;2965;42.640;23.370;2024-01-11T01:50:47;95383.31;;;-5.33;100.00
5879;BME280;2965;42.640;23.370;2024-01-11T01:53:19;95369.84;;;-5.36;100.00
5879;BME280;2965;42.640;23.370;2024-01-11T01:55:47;95364.56;;;-5.32;100.00
5879;BME280;2965;42.640;23.370;2024-01-11T01:58:14;95363.88;;;-5.35;100.00
5879;BME280;2965;42.640;23.370;2024-01-11T02:00:40;95369.94;;;-5.38;100.00
5879;BME280;2965;42.640;23.370;2024-01-11T02:03:08;95365.22;;;-5.47;100.00
5879;BME280;2965;42.640;23.370;2024-01-11T02:05:33;95368.59;;;-5.46;100.00
5879;BME280;2965;42.640;23.370;2024-01-11T02:08:01;95363.44;;;-5.45;100.00
5879;BME280;2965;42.640;23.370;2024-01-11T02:10:30;95360.25;;;-5.50;100.00
5879;BME280;2965;42.640;23.370;2024-01-11T02:12:58;95362.59;;;-5.45;100.00
5879;BME280;2965;42.640;23.370;2024-01-11T02:15:24;95356.69;;;-5.46;100.00
5879;BME280;2965;42.640;23.370;2024-01-11T02:17:49;95360.25;;;-5.50;100.00
5879;BME280;2965;42.640;23.370;2024-01-11T02:51:04;95348.59;;;-5.95;100.00
5879;BME280;2965;42.640;23.370;2024-01-11T02:53:29;95336.16;;;-6.02;100.00
5879;BME280;2965;42.640;23.370;2024-01-11T02:55:59;95349.56;;;-5.97;100.00
5879;BME280;2965;42.640;23.370;2024-01-11T02:58:25;95338.41;;;-5.95;100.00
5879;BME280;2965;42.640;23.370;2024-01-11T03:00:50;95340.97;;;-5.95;100.00
5879;BME280;2965;42.640;23.370;2024-01-11T03:03:16;95346.06;;;-5.95;100.00
5879;BME280;2965;42.640;23.370;2024-01-11T03:05:41;95339.31;;;-5.96;100.00
5879;BME280;2965;42.640;23.370;2024-01-11T03:08:07;95345.31;;;-5.97;100.00
5879;BME280;2965;42.640;23.370;2024-01-11T03:10:32;95327.94;;;-5.89;100.00
5879;BME280;2965;42.640;23.370;2024-01-11T03:12:57;95333.91;;;-5.90;100.00
5879;BME280;2965;42.640;23.370;2024-01-11T03:15:23;95336.66;;;-5.93;100.00
5879;BME280;2965;42.640;23.370;2024-01-11T03:17:48;95337.59;;;-5.95;100.00
5879;BME280;2965;42.640;23.370;2024-01-11T03:20:14;95335.78;;;-5.93;100.00
5879;BME280;2965;42.640;23.370;2024-01-11T03:22:45;95330.00;;;-5.97;100.00
5879;BME280;2965;42.640;23.370;2024-01-11T03:25:11;95328.22;;;-5.95;100.00
5879;BME280;2965;42.640;23.370;2024-01-11T03:27:36;95325.66;;;-5.95;100.00
5879;BME280;2965;42.640;23.370;2024-01-11T03:30:01;95327.31;;;-5.94;100.00
5879;BME280;2965;42.640;23.370;2024-01-11T03:32:27;95333.50;;;-5.99;100.00
5879;BME280;2965;42.640;23.370;2024-01-11T03:34:53;95338.09;;;-6.07;100.00
5879;BME280;2965;42.640;23.370;2024-01-11T03:37:18;95333.59;;;-6.01;100.00
5879;BME280;2965;42.640;23.370;2024-01-11T03:39:44;95333.59;;;-6.01;100.00
5879;BME280;2965;42.640;23.370;2024-01-11T03:42:09;95335.63;;;-6.09;100.00
5879;BME280;2965;42.640;23.370;2024-01-11T03:44:36;95338.69;;;-6.01;100.00
5879;BME280;2965;42.640;23.370;2024-01-11T03:47:01;95330.41;;;-6.06;100.00
5879;BME280;2965;42.640;23.370;2024-01-11T03:49:27;95330.53;;;-6.09;100.00
5879;BME280;2965;42.640;23.370;2024-01-11T03:51:52;95329.81;;;-6.13;100.00
5879;BME280;2965;42.640;23.370;2024-01-11T03:54:18;95326.56;;;-6.16;100.00
5879;BME280;2965;42.640;23.370;2024-01-11T03:56:43;95322.63;;;-6.23;100.00
5879;BME280;2965;42.640;23.370;2024-01-11T03:59:10;95321.84;;;-6.25;100.00
5879;BME280;2965;42.640;23.370;2024-01-11T04:01:42;95320.06;;;-6.23;100.00
5879;BME280;2965;42.640;23.370;2024-01-11T04:04:07;95322.75;;;-6.26;100.00
5879;BME280;2965;42.640;23.370;2024-01-11T04:06:33;95324.38;;;-6.25;100.00
5879;BME280;2965;42.640;23.370;2024-01-11T04:08:58;95322.47;;;-6.20;100.00
5879;BME280;2965;42.640;23.370;2024-01-11T04:11:27;95316.56;;;-6.21;100.00
5879;BME280;2965;42.640;23.370;2024-01-11T04:13:53;95314.78;;;-6.19;100.00
5879;BME280;2965;42.640;23.370;2024-01-11T04:16:18;95317.59;;;-6.04;100.00
5879;BME280;2965;42.640;23.370;2024-01-11T04:18:44;95301.47;;;-6.05;100.00
5879;BME280;2965;42.640;23.370;2024-01-11T04:21:22;95308.50;;;-6.10;100.00
5879;BME280;2965;42.640;23.370;2024-01-11T04:23:48;95305.31;;;-6.15;100.00
5879;BME280;2965;42.640;23.370;2024-01-11T04:26:13;95297.97;;;-6.23;100.00
5879;BME280;2965;42.640;23.370;2024-01-11T04:28:39;95297.38;;;-6.29;100.00
5879;BME280;2965;42.640;23.370;2024-01-11T04:31:04;95296.38;;;-6.25;100.00
5879;BME280;2965;42.640;23.370;2024-01-11T04:33:30;95299.69;;;-6.23;100.00
5879;BME280;2965;42.640;23.370;2024-01-11T04:35:55;95300.56;;;-6.24;100.00
5879;BME280;2965;42.640;23.370;2024-01-11T04:38:21;95300.44;;;-6.21;100.00
5879;BME280;2965;42.640;23.370;2024-01-11T04:40:46;95305.66;;;-6.24;100.00
5879;BME280;2965;42.640;23.370;2024-01-11T04:43:11;95307.34;;;-6.23;100.00
5879;BME280;2965;42.640;23.370;2024-01-11T04:45:37;95310.91;;;-6.27;100.00
5879;BME280;2965;42.640;23.370;2024-01-11T04:48:03;95304.16;;;-6.28;100.00
5879;BME280;2965;42.640;23.370;2024-01-11T04:50:28;95309.25;;;-6.28;100.00
5879;BME280;2965;42.640;23.370;2024-01-11T04:52:54;95318.66;;;-6.30;100.00
5879;BME280;2965;42.640;23.370;2024-01-11T04:55:19;95313.88;;;-6.38;100.00
5879;BME280;2965;42.640;23.370;2024-01-11T04:57:44;95315.47;;;-6.36;100.00
5879;BME280;2965;42.640;23.370;2024-01-11T05:00:10;95314.34;;;-6.28;100.00
5879;BME280;2965;42.640;23.370;2024-01-11T05:02:36;95319.28;;;-6.25;100.00
5879;BME280;2965;42.640;23.370;2024-01-11T05:05:01;95319.19;;;-6.22;100.00
5879;BME280;2965;42.640;23.370;2024-01-11T05:07:27;95315.84;;;-6.24;100.00
5879;BME280;2965;42.640;23.370;2024-01-11T05:09:53;95320.81;;;-6.21;100.00
5879;BME280;2965;42.640;23.370;2024-01-11T05:12:18;95310.91;;;-6.27;100.00
5879;BME280;2965;42.640;23.370;2024-01-11T05:14:43;95317.13;;;-6.35;100.00
5879;BME280;2965;42.640;23.370;2024-01-11T05:17:09;95310.50;;;-6.39;100.00
5879;BME280;2965;42.640;23.370;2024-01-11T05:19:34;95305.41;;;-6.39;100.00
5879;BME280;2965;42.640;23.370;2024-01-11T05:22:00;95301.31;;;-6.43;100.00
5879;BME280;2965;42.640;23.370;2024-01-11T05:24:25;95294.31;;;-6.38;100.00
5879;BME280;2965;42.640;23.370;2024-01-11T05:26:51;95301.22;;;-6.40;100.00
5879;BME280;2965;42.640;23.370;2024-01-11T05:29:16;95294.47;;;-6.41;100.00
5879;BME280;2965;42.640;23.370;2024-01-11T05:31:42;95294.50;;;-6.42;100.00
5879;BME280;2965;42.640;23.370;2024-01-11T05:34:07;95290.50;;;-6.48;100.00
5879;BME280;2965;42.640;23.370;2024-01-11T05:36:34;95288.84;;;-6.49;100.00
5879;BME280;2965;42.640;23.370;2024-01-11T05:38:59;95287.97;;;-6.48;100.00
5879;BME280;2965;42.640;23.370;2024-01-11T05:41:25;95282.75;;;-6.45;100.00
5879;BME280;2965;42.640;23.370;2024-01-11T05:43:50;95290.50;;;-6.48;100.00
5879;BME280;2965;42.640;23.370;2024-01-11T05:46:15;95280.09;;;-6.42;100.00
5879;BME280;2965;42.640;23.370;2024-01-11T05:48:42;95284.28;;;-6.41;100.00
5879;BME280;2965;42.640;23.370;2024-01-11T05:51:08;95279.78;;;-6.56;100.00
5879;BME280;2965;42.640;23.370;2024-01-11T05:53:34;95274.06;;;-6.61;100.00
5879;BME280;2965;42.640;23.370;2024-01-11T05:56:01;95275.22;;;-6.68;100.00
5879;BME280;2965;42.640;23.370;2024-01-11T05:58:26;95276.50;;;-6.58;100.00
5879;BME280;2965;42.640;23.370;2024-01-11T06:00:51;95263.47;;;-6.50;100.00
5879;BME280;2965;42.640;23.370;2024-01-11T06:03:17;95266.56;;;-6.44;100.00
5879;BME280;2965;42.640;23.370;2024-01-11T06:05:42;95270.66;;;-6.40;100.00
5879;BME280;2965;42.640;23.370;2024-01-11T06:08:08;95262.56;;;-6.29;100.00
5879;BME280;2965;42.640;23.370;2024-01-11T06:10:33;95259.69;;;-6.21;100.00
5879;BME280;2965;42.640;23.370;2024-01-11T06:12:59;95263.69;;;-6.16;100.00
5879;BME280;2965;42.640;23.370;2024-01-11T06:15:24;95267.84;;;-6.13;100.00
5879;BME280;2965;42.640;23.370;2024-01-11T06:17:49;95262.75;;;-6.13;100.00
5879;BME280;2965;42.640;23.370;2024-01-11T06:20:15;95267.84;;;-6.13;100.00
5879;BME280;2965;42.640;23.370;2024-01-11T06:22:41;95266.63;;;-6.04;100.00
5879;BME280;2965;42.640;23.370;2024-01-11T06:25:07;95271.94;;;-6.09;100.00
5879;BME280;2965;42.640;23.370;2024-01-11T06:27:32;95268.56;;;-6.10;100.00
5879;BME280;2965;42.640;23.370;2024-01-11T06:29:58;95260.84;;;-6.08;100.00
5879;BME280;2965;42.640;23.370;2024-01-11T06:32:24;95261.47;;;-6.03;100.00
5879;BME280;2965;42.640;23.370;2024-01-11T06:34:49;95260.31;;;-5.96;100.00
5879;BME280;2965;42.640;23.370;2024-01-11T06:37:14;95261.72;;;-5.90;100.00
5879;BME280;2965;42.640;23.370;2024-01-11T06:39:40;95260.72;;;-5.86;100.00
5879;BME280;2965;42.640;23.370;2024-01-11T06:42:05;95249.09;;;-5.92;100.00
5879;BME280;2965;42.640;23.370;2024-01-11T06:44:31;95248.16;;;-5.91;100.00
5879;BME280;2965;42.640;23.370;2024-01-11T06:46:56;95242.94;;;-5.88;100.00
5879;BME280;2965;42.640;23.370;2024-01-11T06:49:22;95239.22;;;-5.80;100.00
5879;BME280;2965;42.640;23.370;2024-01-11T06:51:47;95234.81;;;-5.77;100.00
5879;BME280;2965;42.640;23.370;2024-01-11T06:54:12;95232.06;;;-5.72;100.00
5879;BME280;2965;42.640;23.370;2024-01-11T06:56:38;95237.66;;;-5.64;100.00
5879;BME280;2965;42.640;23.370;2024-01-11T06:59:03;95237.66;;;-5.64;100.00
5879;BME280;2965;42.640;23.370;2024-01-11T07:01:29;95238.16;;;-5.56;100.00
5879;BME280;2965;42.640;23.370;2024-01-11T07:03:54;95239.53;;;-5.49;100.00
5879;BME280;2965;42.640;23.370;2024-01-11T07:06:20;95238.13;;;-5.37;100.00
5879;BME280;2965;42.640;23.370;2024-01-11T07:08:45;95238.81;;;-5.34;100.00
5879;BME280;2965;42.640;23.370;2024-01-11T07:11:11;95241.50;;;-5.37;100.00
5879;BME280;2965;42.640;23.370;2024-01-11T07:13:36;95239.50;;;-5.30;100.00
5879;BME280;2965;42.640;23.370;2024-01-11T07:16:03;95245.53;;;-5.14;100.00
5879;BME280;2965;42.640;23.370;2024-01-11T07:18:28;95233.25;;;-5.05;100.00
5879;BME280;2965;42.640;23.370;2024-01-11T07:20:56;95244.03;;;-4.99;100.00
5879;BME280;2965;42.640;23.370;2024-01-11T07:23:21;95238.00;;;-4.98;100.00
5879;BME280;2965;42.640;23.370;2024-01-11T07:25:47;95235.16;;;-4.92;100.00
5879;BME280;2965;42.640;23.370;2024-01-11T07:28:13;95239.69;;;-4.79;100.00
5879;BME280;2965;42.640;23.370;2024-01-11T07:30:38;95234.13;;;-4.70;100.00
5879;BME280;2965;42.640;23.370;2024-01-11T07:33:05;95230.41;;;-4.63;100.00
5879;BME280;2965;42.640;23.370;2024-01-11T07:35:30;95231.31;;;-4.47;100.00
5879;BME280;2965;42.640;23.370;2024-01-11T07:37:57;95233.47;;;-4.39;100.00
5879;BME280;2965;42.640;23.370;2024-01-11T07:40:22;95226.41;;;-4.34;100.00
5879;BME280;2965;42.640;23.370;2024-01-11T07:42:48;95237.47;;;-4.68;100.00
5879;BME280;2965;42.640;23.370;2024-01-11T07:45:13;95224.19;;;-5.11;100.00
5879;BME280;2965;42.640;23.370;2024-01-11T07:47:39;95231.53;;;-5.22;100.00
5879;BME280;2965;42.640;23.370;2024-01-11T07:50:08;95224.59;;;-5.20;100.00
5879;BME280;2965;42.640;23.370;2024-01-11T07:52:40;95230.09;;;-5.11;100.00
5879;BME280;2965;42.640;23.370;2024-01-11T07:55:10;95225.81;;;-5.10;100.00
5879;BME280;2965;42.640;23.370;2024-01-11T07:57:38;95227.00;;;-4.81;100.00
5879;BME280;2965;42.640;23.370;2024-01-11T08:00:04;95218.22;;;-4.58;100.00
5879;BME280;2965;42.640;23.370;2024-01-11T08:02:32;95219.66;;;-4.35;100.00
5879;BME280;2965;42.640;23.370;2024-01-11T08:04:57;95206.72;;;-4.15;100.00
5879;BME280;2965;42.640;23.370;2024-01-11T08:07:25;95216.66;;;-3.93;100.00
5879;BME280;2965;42.640;23.370;2024-01-11T08:09:51;95212.69;;;-3.98;100.00
5879;BME280;2965;42.640;23.370;2024-01-11T08:12:16;95212.28;;;-4.24;100.00
5879;BME280;2965;42.640;23.370;2024-01-11T08:14:42;95210.13;;;-4.66;100.00
5879;BME280;2965;42.640;23.370;2024-01-11T08:17:08;95206.44;;;-4.61;100.00
5879;BME280;2965;42.640;23.370;2024-01-11T08:19:34;95208.47;;;-4.33;100.00
5879;BME280;2965;42.640;23.370;2024-01-11T08:21:59;95201.78;;;-4.02;100.00
5879;BME280;2965;42.640;23.370;2024-01-11T08:24:25;95199.94;;;-3.83;100.00
5879;BME280;2965;42.640;23.370;2024-01-11T08:26:51;95199.94;;;-3.83;100.00
5879;BME280;2965;42.640;23.370;2024-01-11T08:29:16;95199.19;;;-3.85;100.00
5879;BME280;2965;42.640;23.370;2024-01-11T08:31:47;95195.47;;;-3.63;100.00
5879;BME280;2965;42.640;23.370;2024-01-11T08:34:13;95194.75;;;-3.34;100.00
5879;BME280;2965;42.640;23.370;2024-01-11T08:36:39;95200.66;;;-3.32;100.00
5879;BME280;2965;42.640;23.370;2024-01-11T08:39:05;95191.38;;;-3.18;100.00
5879;BME280;2965;42.640;23.370;2024-01-11T08:41:31;95191.13;;;-3.30;100.00
5879;BME280;2965;42.640;23.370;2024-01-11T08:43:57;95201.72;;;-3.36;100.00
5879;BME280;2965;42.640;23.370;2024-01-11T08:46:26;95198.06;;;-3.00;100.00
5879;BME280;2965;42.640;23.370;2024-01-11T08:48:53;95190.97;;;-3.26;100.00
5879;BME280;2965;42.640;23.370;2024-01-11T08:51:19;95190.31;;;-3.14;100.00
5879;BME280;2965;42.640;23.370;2024-01-11T08:53:44;95195.34;;;-3.28;100.00
5879;BME280;2965;42.640;23.370;2024-01-11T08:56:10;95186.94;;;-3.31;100.00
5879;BME280;2965;42.640;23.370;2024-01-11T08:58:35;95195.91;;;-3.23;100.00
5879;BME280;2965;42.640;23.370;2024-01-11T09:01:02;95185.19;;;-3.14;100.00
5879;BME280;2965;42.640;23.370;2024-01-11T09:03:28;95183.00;;;-3.06;100.00
5879;BME280;2965;42.640;23.370;2024-01-11T09:05:54;95179.38;;;-3.02;100.00
5879;BME280;2965;42.640;23.370;2024-01-11T09:08:22;95170.84;;;-2.87;100.00
5879;BME280;2965;42.640;23.370;2024-01-11T09:10:48;95171.25;;;-2.78;100.00
5879;BME280;2965;42.640;23.370;2024-01-11T09:13:13;95164.53;;;-2.51;100.00
5879;BME280;2965;42.640;23.370;2024-01-11T09:15:40;95161.00;;;-2.06;100.00
5879;BME280;2965;42.640;23.370;2024-01-11T09:18:06;95159.97;;;-1.46;100.00
5879;BME280;2965;42.640;23.370;2024-01-11T09:20:31;95159.44;;;-0.97;100.00
5879;BME280;2965;42.640;23.370;2024-01-11T09:22:57;95158.13;;;-0.90;100.00
5879;BME280;2965;42.640;23.370;2024-01-11T09:25:22;95155.44;;;-1.01;100.00
5879;BME280;2965;42.640;23.370;2024-01-11T09:27:49;95150.94;;;-1.39;100.00
5879;BME280;2965;42.640;23.370;2024-01-11T09:30:14;95152.72;;;-0.72;100.00
5879;BME280;2965;42.640;23.370;2024-01-11T09:32:40;95146.63;;;0.07;100.00
5879;BME280;2965;42.640;23.370;2024-01-11T09:35:06;95147.28;;;0.47;100.00
5879;BME280;2965;42.640;23.370;2024-01-11T09:37:31;95143.75;;;0.48;95.91
5879;BME280;2965;42.640;23.370;2024-01-11T09:39:57;95132.06;;;-0.84;100.00
5879;BME280;2965;42.640;23.370;2024-01-11T09:42:22;95129.22;;;-0.41;100.00
5879;BME280;2965;42.640;23.370;2024-01-11T09:44:48;95127.53;;;-0.93;100.00
5879;BME280;2965;42.640;23.370;2024-01-11T09:47:15;95112.28;;;-0.96;100.00
5879;BME280;2965;42.640;23.370;2024-01-11T09:49:44;95113.16;;;-0.70;100.00
5879;BME280;2965;42.640;23.370;2024-01-11T09:52:11;95097.53;;;-0.54;100.00
5879;BME280;2965;42.640;23.370;2024-01-11T09:54:38;95106.69;;;0.01;100.00
5879;BME280;2965;42.640;23.370;2024-01-11T09:57:07;95095.28;;;-0.46;100.00
5879;BME280;2965;42.640;23.370;2024-01-11T09:59:35;95098.16;;;0.01;100.00
5879;BME280;2965;42.640;23.370;2024-01-11T10:02:02;95092.38;;;0.22;94.20
5879;BME280;2965;42.640;23.370;2024-01-11T10:04:29;95083.72;;;0.84;89.91
5879;BME280;2965;42.640;23.370;2024-01-11T10:06:56;95075.94;;;1.08;88.26
5879;BME280;2965;42.640;23.370;2024-01-11T10:09:22;95075.41;;;0.92;86.33
5879;BME280;2965;42.640;23.370;2024-01-11T10:11:48;95081.09;;;1.08;88.02
5879;BME280;2965;42.640;23.370;2024-01-11T10:14:14;95069.94;;;0.72;88.78
5879;BME280;2965;42.640;23.370;2024-01-11T10:16:43;95069.47;;;1.38;90.00
5879;BME280;2965;42.640;23.370;2024-01-11T10:19:09;95058.25;;;1.84;85.45
5879;BME280;2965;42.640;23.370;2024-01-11T10:21:37;95060.53;;;1.31;85.53
5879;BME280;2965;42.640;23.370;2024-01-11T10:24:04;95058.25;;;1.61;85.54
5879;BME280;2965;42.640;23.370;2024-01-11T10:26:30;95052.88;;;1.87;85.22
5879;BME280;2965;42.640;23.370;2024-01-11T10:28:59;95048.84;;;1.49;85.36
5879;BME280;2965;42.640;23.370;2024-01-11T10:31:27;95048.84;;;1.49;86.76
5879;BME280;2965;42.640;23.370;2024-01-11T10:33:53;95030.59;;;1.97;86.56
5879;BME280;2965;42.640;23.370;2024-01-11T10:36:18;95023.03;;;2.16;81.28
5879;BME280;2965;42.640;23.370;2024-01-11T10:38:46;95024.25;;;2.01;83.30
5879;BME280;2965;42.640;23.370;2024-01-11T10:41:13;95018.19;;;2.45;83.10
5879;BME280;2965;42.640;23.370;2024-01-11T10:43:43;95010.75;;;2.09;80.04
5879;BME280;2965;42.640;23.370;2024-01-11T10:46:10;95006.50;;;3.15;78.06
5879;BME280;2965;42.640;23.370;2024-01-11T10:48:38;95006.28;;;2.22;78.60
5879;BME280;2965;42.640;23.370;2024-01-11T10:51:08;95002.47;;;2.69;78.71
5879;BME280;2965;42.640;23.370;2024-01-11T10:53:45;95004.22;;;4.04;74.34
5879;BME280;2965;42.640;23.370;2024-01-11T10:56:12;94996.97;;;4.87;68.47
5879;BME280;2965;42.640;23.370;2024-01-11T10:58:40;94996.84;;;4.78;65.97
5879;BME280;2965;42.640;23.370;2024-01-11T11:01:06;94986.34;;;5.09;65.43
5879;BME280;2965;42.640;23.370;2024-01-11T11:03:33;94989.47;;;4.93;64.92
5879;BME280;2965;42.640;23.370;2024-01-11T11:06:00;94976.75;;;5.00;64.75
5879;BME280;2965;42.640;23.370;2024-01-11T11:08:26;94962.22;;;5.46;61.68
5879;BME280;2965;42.640;23.370;2024-01-11T11:10:56;94965.94;;;5.80;60.44
5879;BME280;2965;42.640;23.370;2024-01-11T11:13:26;94957.31;;;6.17;61.40
5879;BME280;2965;42.640;23.370;2024-01-11T11:15:55;94953.50;;;6.57;60.49
5879;BME280;2965;42.640;23.370;2024-01-11T11:18:24;94951.34;;;6.88;59.12
5879;BME280;2965;42.640;23.370;2024-01-11T11:20:50;94948.94;;;6.41;58.84
5879;BME280;2965;42.640;23.370;2024-01-11T11:23:17;94927.13;;;6.34;59.91
5879;BME280;2965;42.640;23.370;2024-01-11T11:25:47;94917.75;;;6.77;58.27
5879;BME280;2965;42.640;23.370;2024-01-11T11:28:14;94927.88;;;6.62;56.23
5879;BME280;2965;42.640;23.370;2024-01-11T11:30:40;94919.69;;;6.21;56.50
5879;BME280;2965;42.640;23.370;2024-01-11T11:33:25;94911.91;;;6.21;59.07
5879;BME280;2965;42.640;23.370;2024-01-11T11:35:57;94908.19;;;6.77;57.16
5879;BME280;2965;42.640;23.370;2024-01-11T11:38:26;94911.63;;;6.60;55.66
5879;BME280;2965;42.640;23.370;2024-01-11T11:40:53;94901.66;;;5.27;58.71
5879;BME280;2965;42.640;23.370;2024-01-11T11:43:20;94899.59;;;4.74;61.92
5879;BME280;2965;42.640;23.370;2024-01-11T11:45:47;94896.84;;;4.47;61.94
5879;BME280;2965;42.640;23.370;2024-01-11T11:51:10;94893.75;;;4.53;65.59
5879;BME280;2965;42.640;23.370;2024-01-11T11:53:40;94887.81;;;3.93;66.01
5879;BME280;2965;42.640;23.370;2024-01-11T11:56:07;94890.56;;;4.20;66.75
5879;BME280;2965;42.640;23.370;2024-01-11T11:58:34;94880.34;;;3.90;68.28
5879;BME280;2965;42.640;23.370;2024-01-11T12:01:00;94882.94;;;4.19;67.60
5879;BME280;2965;42.640;23.370;2024-01-11T12:03:29;94877.09;;;4.26;68.21
5879;BME280;2965;42.640;23.370;2024-01-11T12:05:56;94873.56;;;4.37;68.65
5879;BME280;2965;42.640;23.370;2024-01-11T12:08:22;94873.81;;;4.15;69.88
5879;BME280;2965;42.640;23.370;2024-01-11T12:10:48;94865.50;;;4.50;67.33
5879;BME280;2965;42.640;23.370;2024-01-11T12:13:13;94858.50;;;5.26;63.11
5879;BME280;2965;42.640;23.370;2024-01-11T12:15:40;94852.38;;;5.27;63.22
5879;BME280;2965;42.640;23.370;2024-01-11T12:18:06;94848.72;;;6.21;60.45
5879;BME280;2965;42.640;23.370;2024-01-11T12:20:35;94837.84;;;7.05;57.63
5879;BME280;2965;42.640;23.370;2024-01-11T12:23:00;94834.69;;;6.31;57.47
5879;BME280;2965;42.640;23.370;2024-01-11T12:25:27;94836.06;;;5.45;58.80
5879;BME280;2965;42.640;23.370;2024-01-11T12:27:53;94833.72;;;4.67;61.47
5879;BME280;2965;42.640;23.370;2024-01-11T12:30:18;94828.16;;;5.37;63.37
5879;BME280;2965;42.640;23.370;2024-01-11T12:32:44;94832.25;;;6.48;56.86
5879;BME280;2965;42.640;23.370;2024-01-11T12:35:10;94823.47;;;7.27;54.13
5879;BME280;2965;42.640;23.370;2024-01-11T12:37:36;94823.94;;;7.22;53.16
5879;BME280;2965;42.640;23.370;2024-01-11T12:40:01;94819.16;;;7.44;53.86
5879;BME280;2965;42.640;23.370;2024-01-11T12:42:27;94815.41;;;7.04;52.66
5879;BME280;2965;42.640;23.370;2024-01-11T12:44:53;94814.59;;;7.46;53.49
5879;BME280;2965;42.640;23.370;2024-01-11T12:47:19;94811.50;;;7.08;52.04
5879;BME280;2965;42.640;23.370;2024-01-11T12:49:47;94805.53;;;7.50;53.42
5879;BME280;2965;42.640;23.370;2024-01-11T12:52:18;94799.44;;;7.92;52.44
5879;BME280;2965;42.640;23.370;2024-01-11T12:54:52;94793.50;;;8.56;50.71
5879;BME280;2965;42.640;23.370;2024-01-11T12:57:20;94790.97;;;7.90;53.08
5879;BME280;2965;42.640;23.370;2024-01-11T12:59:47;94781.09;;;8.58;51.11
5879;BME280;2965;42.640;23.370;2024-01-11T13:02:12;94786.50;;;8.65;49.86
5879;BME280;2965;42.640;23.370;2024-01-11T13:04:42;94771.63;;;8.82;50.27
5879;BME280;2965;42.640;23.370;2024-01-11T13:07:10;94772.72;;;9.12;49.49
5879;BME280;2965;42.640;23.370;2024-01-11T13:09:35;94775.88;;;8.18;51.48
5879;BME280;2965;42.640;23.370;2024-01-11T13:12:01;94776.38;;;8.62;50.84
5879;BME280;2965;42.640;23.370;2024-01-11T13:14:26;94774.53;;;7.89;52.24
5879;BME280;2965;42.640;23.370;2024-01-11T13:16:54;94769.66;;;7.94;53.16
5879;BME280;2965;42.640;23.370;2024-01-11T13:19:19;94771.81;;;8.15;51.81
5879;BME280;2965;42.640;23.370;2024-01-11T13:21:45;94757.81;;;8.41;51.71
5879;BME280;2965;42.640;23.370;2024-01-11T13:24:10;94752.19;;;8.93;50.48
5879;BME280;2965;42.640;23.370;2024-01-11T13:26:38;94750.72;;;9.38;49.33
5879;BME280;2965;42.640;23.370;2024-01-11T13:29:06;94740.13;;;9.00;50.45
5879;BME280;2965;42.640;23.370;2024-01-11T13:31:32;94752.44;;;9.22;49.15
5879;BME280;2965;42.640;23.370;2024-01-11T13:33:58;94740.22;;;9.54;49.02
5879;BME280;2965;42.640;23.370;2024-01-11T13:36:24;94734.09;;;9.39;49.28
5879;BME280;2965;42.640;23.370;2024-01-11T13:38:50;94737.13;;;9.81;48.04
5879;BME280;2965;42.640;23.370;2024-01-11T13:41:16;94723.53;;;10.09;48.17
5879;BME280;2965;42.640;23.370;2024-01-11T13:43:43;94715.66;;;8.37;51.27
5879;BME280;2965;42.640;23.370;2024-01-11T13:46:08;94726.22;;;8.52;52.65
5879;BME280;2965;42.640;23.370;2024-01-11T13:48:34;94726.41;;;7.43;55.72
5879;BME280;2965;42.640;23.370;2024-01-11T13:51:01;94719.59;;;7.42;58.64
5879;BME280;2965;42.640;23.370;2024-01-11T13:53:28;94713.38;;;7.34;58.33
5879;BME280;2965;42.640;23.370;2024-01-11T13:55:54;94720.06;;;6.87;59.30
5879;BME280;2965;42.640;23.370;2024-01-11T13:58:21;94715.22;;;5.96;62.97
5879;BME280;2965;42.640;23.370;2024-01-11T14:00:46;94712.47;;;5.79;65.00
5879;BME280;2965;42.640;23.370;2024-01-11T14:03:12;94712.78;;;6.12;63.92
5879;BME280;2965;42.640;23.370;2024-01-11T14:05:37;94705.72;;;5.87;66.20
5879;BME280;2965;42.640;23.370;2024-01-11T14:08:03;94699.03;;;5.66;66.61